.
WxDataArchive / Data Records for 2008-08-21
2008-08-20 August 2008 2008-08-22

Data Records for Thursday, 21 August 2008

Time	Temp	Chill	HIndex	Humid	Dewpt	 Wind 	HiWind	WindDir	Rain 	Barom 
-----	----	-----	------	-----	-----	------	------	-------	-----	----- 
00:00	60.2	60.2	60.2	71	50.8	0	1	112	0.00	30.090 
00:05	59.9	59.9	59.9	72	50.8	0	1	112	0.00	30.087 
00:10	59.6	59.6	59.6	73	50.9	0	0	---	0.00	30.086 
00:15	59.5	59.5	59.5	73	50.8	0	0	---	0.00	30.085 
00:20	59.2	59.2	59.2	75	51.3	0	1	112	0.00	30.084 
00:25	59.0	59.0	59.0	75	51.1	0	0	---	0.00	30.084 
00:30	58.9	58.9	58.9	76	51.3	0	0	---	0.00	30.084 
00:35	58.7	58.7	58.7	76	51.2	0	1	112	0.00	30.084 
00:40	58.7	58.7	58.7	76	51.2	0	1	112	0.00	30.084 
00:45	58.7	58.7	58.7	76	51.2	0	1	112	0.00	30.084 
00:50	58.7	58.7	58.7	76	51.2	0	1	112	0.00	30.085 
00:55	58.7	58.7	58.7	76	51.2	0	1	112	0.00	30.084 
01:00	58.6	58.6	58.6	76	51.1	0	1	112	0.00	30.083 
01:05	58.6	58.6	58.6	77	51.4	0	1	112	0.00	30.081 
01:10	58.4	58.4	58.4	77	51.2	0	1	112	0.00	30.081 
01:15	58.3	58.3	58.3	77	51.1	0	2	112	0.00	30.079 
01:20	58.3	58.3	58.3	78	51.5	0	2	112	0.00	30.079 
01:25	58.4	58.4	58.4	78	51.6	0	1	112	0.00	30.075 
01:30	58.4	58.4	58.4	78	51.6	0	2	112	0.00	30.073 
01:35	58.4	58.4	58.4	78	51.6	0	1	112	0.00	30.073 
01:40	58.6	58.6	58.6	78	51.8	0	1	112	0.00	30.072 
01:45	58.6	58.6	58.6	78	51.8	0	1	112	0.00	30.067 
01:50	58.6	58.6	58.6	78	51.8	0	3	112	0.00	30.066 
01:55	58.7	58.7	58.7	78	51.9	0	1	112	0.00	30.066 
02:00	58.9	58.9	58.9	78	52.0	0	2	112	0.00	30.067 
02:05	58.9	58.9	58.9	78	52.0	0	2	112	0.00	30.066 
02:10	58.9	58.9	58.9	79	52.4	0	1	112	0.00	30.065 
02:15	58.9	58.9	58.9	79	52.4	0	1	112	0.00	30.064 
02:20	58.9	58.9	58.9	79	52.4	0	1	112	0.00	30.064 
02:25	58.9	58.9	58.9	80	52.7	0	2	112	0.00	30.062 
02:30	58.9	58.9	58.9	80	52.7	1	3	112	0.00	30.062 
02:35	58.7	58.7	58.7	80	52.5	1	4	90	0.00	30.060 
02:40	58.7	58.7	58.7	81	52.9	0	2	90	0.00	30.057 
02:45	58.7	58.7	58.7	81	52.9	0	1	90	0.00	30.059 
02:50	58.6	58.6	58.6	81	52.8	0	1	90	0.00	30.056 
02:55	58.6	58.6	58.6	81	52.8	0	1	90	0.00	30.057 
03:00	58.4	58.4	58.4	82	52.9	0	1	90	0.00	30.058 
03:05	58.4	58.4	58.4	82	52.9	0	2	90	0.00	30.059 
03:10	58.3	58.3	58.3	83	53.2	0	3	90	0.00	30.056 
03:15	58.3	58.3	58.3	83	53.2	0	3	90	0.00	30.053 
03:20	58.4	58.4	58.4	84	53.6	0	2	90	0.00	30.051 
03:25	58.4	58.4	58.4	84	53.6	1	4	90	0.00	30.052 
03:30	58.4	58.4	58.4	84	53.6	0	2	90	0.00	30.050 
03:35	58.4	58.4	58.4	84	53.6	1	2	90	0.00	30.051 
03:40	58.4	58.4	58.4	84	53.6	0	3	90	0.00	30.050 
03:45	58.4	58.4	58.4	85	53.9	0	1	90	0.00	30.049 
03:50	58.3	58.3	58.3	85	53.8	0	2	90	0.00	30.049 
03:55	58.3	58.3	58.3	85	53.8	0	1	90	0.00	30.049 
04:00	58.3	58.3	58.3	86	54.1	0	2	90	0.00	30.049 
04:05	58.3	58.3	58.3	86	54.1	0	1	90	0.00	30.049 
04:10	58.1	58.1	58.1	86	53.9	0	1	90	0.00	30.048 
04:15	58.1	58.1	58.1	86	53.9	0	1	90	0.00	30.049 
04:20	58.0	58.0	58.0	86	53.8	0	1	90	0.00	30.049 
04:25	58.0	58.0	58.0	87	54.1	0	0	---	0.00	30.049 
04:30	57.8	57.8	57.8	87	54.0	0	0	---	0.00	30.048 
04:35	57.6	57.6	57.6	87	53.8	0	1	90	0.00	30.049 
04:40	57.6	57.6	57.6	87	53.8	0	0	---	0.00	30.049 
04:45	57.5	57.5	57.5	87	53.7	0	1	90	0.00	30.049 
04:50	57.5	57.5	57.5	88	54.0	0	2	90	0.00	30.049 
04:55	57.5	57.5	57.5	88	54.0	0	0	---	0.00	30.050 
05:00	57.5	57.5	57.5	88	54.0	0	0	---	0.00	30.052 
05:05	57.3	57.3	57.3	88	53.8	0	1	90	0.00	30.055 
05:10	57.3	57.3	57.3	88	53.8	0	1	90	0.00	30.054 
05:15	57.3	57.3	57.3	88	53.8	0	0	---	0.00	30.057 
05:20	57.2	57.2	57.2	89	54.0	0	1	90	0.00	30.057 
05:25	57.2	57.2	57.2	89	54.0	0	1	90	0.00	30.058 
05:30	57.3	57.3	57.3	89	54.1	0	1	90	0.00	30.058 
05:35	57.3	57.3	57.3	89	54.1	0	2	90	0.00	30.059 
05:40	57.5	57.5	57.5	89	54.3	0	1	90	0.00	30.059 
05:45	57.5	57.5	57.5	89	54.3	0	2	90	0.00	30.057 
05:50	57.6	57.6	57.6	89	54.4	0	2	90	0.00	30.059 
05:55	57.8	57.8	57.8	89	54.6	0	1	90	0.00	30.057 
06:00	57.8	57.8	57.8	89	54.6	0	1	90	0.00	30.059 
06:05	57.8	57.8	57.8	89	54.6	0	2	90	0.00	30.062 
06:10	57.8	57.8	57.8	89	54.6	0	1	90	0.00	30.064 
06:15	58.0	58.0	58.0	89	54.8	0	1	90	0.00	30.064 
06:20	58.0	58.0	58.0	88	54.5	0	2	90	0.00	30.065 
06:25	58.0	58.0	58.0	88	54.5	0	2	90	0.00	30.063 
06:30	58.1	58.1	58.1	88	54.6	0	2	90	0.00	30.064 
06:35	58.1	58.1	58.1	88	54.6	0	2	90	0.00	30.067 
06:40	58.3	58.3	58.3	88	54.8	0	1	90	0.00	30.068 
06:45	58.6	58.6	58.6	88	55.1	0	2	90	0.00	30.068 
06:50	58.9	58.9	58.9	88	55.3	0	2	90	0.00	30.069 
06:55	59.2	59.2	59.2	87	55.3	0	2	90	0.00	30.071 
07:00	59.6	59.6	59.6	86	55.4	0	2	90	0.00	30.070 
07:05	60.1	60.1	60.1	85	55.6	0	2	90	0.00	30.074 
07:10	60.5	60.5	60.5	83	55.3	1	3	112	0.00	30.074 
07:15	61.2	61.2	61.2	81	55.3	0	2	112	0.00	30.073 
07:20	61.8	61.8	61.8	80	55.6	1	2	112	0.00	30.074 
07:25	62.3	62.3	62.3	79	55.7	1	3	112	0.00	30.074 
07:30	62.7	62.7	62.7	78	55.7	1	5	112	0.00	30.073 
07:35	63.1	63.1	63.1	77	55.8	2	5	90	0.00	30.072 
07:40	63.4	63.4	63.4	76	55.7	1	4	90	0.00	30.073 
07:45	63.7	63.7	63.7	76	56.0	2	5	90	0.00	30.073 
07:50	64.3	64.3	64.3	75	56.2	0	2	112	0.00	30.075 
07:55	64.7	64.7	64.7	73	55.8	2	4	90	0.00	30.074 
08:00	64.8	64.8	64.8	73	55.9	1	4	90	0.00	30.074 
08:05	65.0	65.0	65.0	72	55.7	3	5	90	0.00	30.077 
08:10	65.2	65.2	65.2	72	55.9	1	4	112	0.00	30.076 
08:15	65.5	65.5	65.5	72	56.2	1	4	112	0.00	30.077 
08:20	65.8	65.8	65.8	71	56.1	2	5	90	0.00	30.076 
08:25	66.1	66.1	66.1	71	56.4	1	3	112	0.00	30.074 
08:30	66.4	66.4	66.4	70	56.3	1	3	90	0.00	30.075 
08:35	66.9	66.9	66.9	69	56.4	2	4	90	0.00	30.075 
08:40	67.3	67.3	67.3	69	56.8	2	4	90	0.00	30.070 
08:45	67.8	67.8	67.8	69	57.2	1	4	90	0.00	30.069 
08:50	68.4	68.4	68.4	68	57.4	1	4	90	0.00	30.069 
08:55	69.1	69.1	69.1	67	57.7	1	4	90	0.00	30.068 
09:00	69.8	69.8	69.8	65	57.5	1	3	90	0.00	30.067 
09:05	70.4	70.4	70.4	64	57.6	1	4	90	0.00	30.069 
09:10	70.9	70.9	70.9	63	57.7	2	6	90	0.00	30.068 
09:15	71.1	71.1	71.1	62	57.4	2	4	90	0.00	30.069 
09:20	71.6	71.6	71.6	63	58.3	1	6	90	0.00	30.068 
09:25	72.1	72.1	72.1	62	58.3	2	5	90	0.00	30.068 
09:30	72.7	72.7	72.7	62	58.9	2	4	90	0.00	30.068 
09:35	73.0	73.0	73.0	61	58.7	2	6	90	0.00	30.067 
09:40	73.5	73.5	73.5	61	59.2	1	4	112	0.00	30.067 
09:45	74.0	74.0	74.0	59	58.7	2	5	112	0.00	30.065 
09:50	74.7	74.7	74.7	59	59.4	1	4	90	0.00	30.065 
09:55	75.1	75.1	77.5	59	59.8	2	6	90	0.00	30.065 
10:00	75.6	75.6	77.7	60	60.7	1	3	90	0.00	30.064 
10:05	76.3	76.3	78.3	57	59.9	2	5	112	0.00	30.062 
10:10	76.7	76.7	78.5	57	60.3	2	5	90	0.00	30.060 
10:15	76.8	76.8	78.6	57	60.4	2	6	90	0.00	30.063 
10:20	77.6	77.6	79.2	56	60.6	2	6	90	0.00	30.064 
10:25	78.1	78.1	79.5	55	60.6	2	4	90	0.00	30.060 
10:30	78.6	78.6	79.9	54	60.5	1	4	90	0.00	30.058 
10:35	78.8	78.8	80.1	54	60.7	2	6	90	0.00	30.056 
10:40	78.6	78.6	80.0	55	61.1	2	4	90	0.00	30.056 
10:45	79.2	79.2	80.4	54	61.1	1	5	112	0.00	30.053 
10:50	79.6	79.6	80.8	54	61.5	1	4	90	0.00	30.050 
10:55	80.1	80.1	81.1	52	60.9	1	3	90	0.00	30.048 
11:00	80.5	80.5	81.7	54	62.3	1	4	90	0.00	30.048 
11:05	80.3	80.3	81.5	54	62.1	3	7	90	0.00	30.048 
11:10	80.3	80.3	81.5	54	62.1	2	4	90	0.00	30.048 
11:15	80.3	80.3	81.4	53	61.6	2	4	112	0.00	30.047 
11:20	80.7	80.7	81.7	52	61.4	1	5	135	0.00	30.048 
11:25	81.1	81.1	82.1	52	61.8	2	4	112	0.00	30.048 
11:30	81.1	81.1	82.3	54	62.9	2	6	90	0.00	30.048 
11:35	81.1	81.1	82.1	52	61.8	2	6	90	0.00	30.048 
11:40	80.9	80.9	82.0	53	62.1	2	5	112	0.00	30.048 
11:45	80.9	80.9	82.0	53	62.1	2	4	68	0.00	30.047 
11:50	80.9	80.9	82.1	54	62.7	2	4	68	0.00	30.047 
11:55	80.9	80.9	82.0	53	62.1	1	6	90	0.00	30.045 
12:00	80.7	80.7	81.9	54	62.5	2	5	90	0.00	30.043 
12:05	80.5	80.5	81.7	54	62.3	2	5	90	0.00	30.042 
12:10	80.5	80.5	81.8	55	62.8	2	5	68	0.00	30.041 
12:15	80.7	80.7	81.9	54	62.5	2	5	90	0.00	30.037 
12:20	80.7	80.7	81.9	54	62.5	3	5	90	0.00	30.036 
12:25	80.7	80.7	81.9	54	62.5	2	6	112	0.00	30.037 
12:30	80.9	80.9	82.1	54	62.7	2	6	90	0.00	30.038 
12:35	81.1	81.1	82.3	54	62.9	1	4	112	0.00	30.039 
12:40	81.2	81.2	82.5	54	62.9	1	4	112	0.00	30.040 
12:45	81.6	81.6	82.9	54	63.3	3	5	112	0.00	30.038 
12:50	81.8	81.8	83.2	54	63.5	1	5	112	0.00	30.038 
12:55	82.4	82.4	83.7	53	63.5	2	5	90	0.00	30.037 
13:00	82.8	82.8	84.2	53	63.9	2	6	90	0.00	30.032 
13:05	83.0	83.0	84.7	54	64.6	2	6	112	0.00	30.032 
13:10	83.4	83.4	85.0	53	64.4	2	6	90	0.00	30.030 
13:15	83.6	83.6	85.0	52	64.1	2	5	90	0.00	30.029 
13:20	83.8	83.8	85.3	52	64.3	2	7	90	0.00	30.030 
13:25	83.4	83.4	85.0	53	64.4	3	5	112	0.00	30.029 
13:30	83.4	83.4	85.0	53	64.4	1	4	202	0.00	30.027 
13:35	83.0	83.0	84.5	53	64.1	2	6	90	0.00	30.027 
13:40	82.8	82.8	84.4	54	64.4	1	5	90	0.00	30.027 
13:45	82.8	82.8	84.4	54	64.4	1	3	90	0.00	30.024 
13:50	83.0	83.0	84.7	54	64.6	1	4	135	0.00	30.025 
13:55	83.4	83.4	85.2	54	65.0	2	4	112	0.00	30.024 
14:00	83.6	83.6	85.5	54	65.2	1	3	90	0.00	30.018 
14:05	83.6	83.6	85.5	54	65.2	3	6	90	0.00	30.020 
14:10	83.8	83.8	85.5	53	64.8	1	3	112	0.00	30.019 
14:15	84.1	84.1	86.2	54	65.6	2	4	112	0.00	30.017 
14:20	84.3	84.3	86.2	53	65.3	3	6	90	0.00	30.015 
14:25	84.5	84.5	86.3	52	64.9	3	9	90	0.00	30.015 
14:30	84.5	84.5	86.5	53	65.5	1	3	158	0.00	30.014 
14:35	84.9	84.9	86.8	52	65.3	1	4	90	0.00	30.014 
14:40	84.9	84.9	86.8	52	65.3	2	5	90	0.00	30.012 
14:45	84.9	84.9	87.1	53	65.8	2	5	90	0.00	30.011 
14:50	85.1	85.1	87.1	52	65.5	1	4	112	0.00	30.010 
14:55	84.9	84.9	87.1	53	65.8	2	6	112	0.00	30.010 
15:00	84.7	84.7	86.8	53	65.6	1	4	90	0.00	30.008 
15:05	84.7	84.7	86.8	53	65.6	2	5	90	0.00	30.005 
15:10	84.9	84.9	86.8	52	65.3	1	6	90	0.00	30.002 
15:15	85.3	85.3	87.4	52	65.6	1	3	135	0.00	30.001 
15:20	85.7	85.7	87.7	51	65.5	1	4	112	0.00	29.998 
15:25	86.3	86.3	88.6	51	66.0	1	5	112	0.00	29.998 
15:30	86.5	86.5	88.3	49	65.0	2	4	112	0.00	29.996 
15:35	86.7	86.7	88.6	49	65.2	1	3	112	0.00	29.997 
15:40	86.5	86.5	88.3	49	65.0	1	5	90	0.00	29.996 
15:45	86.5	86.5	88.3	49	65.0	1	3	90	0.00	29.994 
15:50	86.7	86.7	88.1	47	64.0	1	5	112	0.00	29.995 
15:55	86.7	86.7	88.1	47	64.0	2	6	90	0.00	29.994 
16:00	86.7	86.7	88.3	48	64.6	1	3	135	0.00	29.992 
16:05	87.0	87.0	88.8	48	64.9	1	4	90	0.00	29.991 
16:10	87.0	87.0	88.8	48	64.9	0	2	90	0.00	29.991 
16:15	86.7	86.7	88.6	49	65.2	1	3	90	0.00	29.989 
16:20	86.5	86.5	88.1	48	64.4	1	4	112	0.00	29.987 
16:25	86.3	86.3	88.0	49	64.9	1	4	112	0.00	29.985 
16:30	85.9	85.9	87.5	49	64.5	1	3	135	0.00	29.984 
16:35	85.5	85.5	87.2	50	64.7	0	3	135	0.00	29.984 
16:40	85.3	85.3	87.1	51	65.1	1	3	135	0.00	29.986 
16:45	85.1	85.1	87.1	52	65.5	1	3	90	0.00	29.987 
16:50	85.1	85.1	87.1	52	65.5	1	3	90	0.00	29.988 
16:55	85.1	85.1	87.1	52	65.5	1	3	112	0.00	29.988 
17:00	85.1	85.1	87.1	52	65.5	0	2	112	0.00	29.987 
17:05	85.3	85.3	87.4	52	65.6	0	2	112	0.00	29.986 
17:10	85.5	85.5	87.7	52	65.8	1	3	112	0.00	29.985 
17:15	85.7	85.7	88.0	52	66.0	1	5	338	0.00	29.982 
17:20	85.7	85.7	88.0	52	66.0	1	3	90	0.00	29.981 
17:25	85.7	85.7	88.0	52	66.0	0	2	90	0.00	29.981 
17:30	85.5	85.5	87.4	51	65.3	1	3	90	0.00	29.980 
17:35	85.3	85.3	87.1	51	65.1	1	4	90	0.00	29.981 
17:40	85.1	85.1	86.9	51	64.9	1	3	90	0.00	29.981 
17:45	85.1	85.1	87.1	52	65.5	1	3	90	0.00	29.981 
17:50	85.1	85.1	87.1	52	65.5	0	1	68	0.00	29.980 
17:55	85.1	85.1	87.4	53	66.0	0	2	68	0.00	29.978 
18:00	84.9	84.9	87.1	53	65.8	1	2	68	0.00	29.977 
18:05	84.7	84.7	87.0	54	66.2	1	2	90	0.00	29.976 
18:10	84.5	84.5	86.7	54	66.0	0	2	90	0.00	29.977 
18:15	84.3	84.3	86.7	55	66.3	0	1	90	0.00	29.978 
18:20	84.1	84.1	86.7	56	66.7	0	1	90	0.00	29.978 
18:25	84.0	84.0	86.5	56	66.6	0	1	90	0.00	29.979 
18:30	83.8	83.8	86.4	57	66.9	0	1	90	0.00	29.979 
18:35	83.6	83.6	86.1	57	66.7	0	1	90	0.00	29.980 
18:40	83.4	83.4	86.1	58	67.0	0	1	90	0.00	29.980 
18:45	83.4	83.4	86.1	58	67.0	0	1	90	0.00	29.980 
18:50	83.2	83.2	85.8	58	66.9	0	1	90	0.00	29.980 
18:55	83.0	83.0	85.7	59	67.2	0	1	90	0.00	29.981 
19:00	82.6	82.6	85.1	59	66.8	0	1	90	0.00	29.982 
19:05	82.4	82.4	85.0	60	67.1	0	0	---	0.00	29.979 
19:10	82.2	82.2	84.7	60	66.9	0	0	---	0.00	29.978 
19:15	81.8	81.8	84.3	61	67.0	0	0	---	0.00	29.980 
19:20	81.4	81.4	83.9	62	67.1	0	0	---	0.00	29.980 
19:25	81.1	81.1	83.5	62	66.8	0	0	---	0.00	29.980 
19:30	80.7	80.7	83.1	63	66.9	0	0	---	0.00	29.981 
19:35	80.3	80.3	82.7	64	67.0	0	0	---	0.00	29.981 
19:40	79.9	79.9	82.2	65	67.1	0	0	---	0.00	29.982 
19:45	79.6	79.6	81.9	66	67.2	0	0	---	0.00	29.982 
19:50	79.2	79.2	81.5	67	67.3	0	0	---	0.00	29.984 
19:55	78.8	78.8	80.9	67	66.9	0	0	---	0.00	29.985 
20:00	78.5	78.5	80.6	68	67.0	0	0	---	0.00	29.988 
20:05	78.3	78.3	80.4	69	67.3	0	0	---	0.00	29.985 
20:10	77.9	77.9	79.9	69	66.9	0	0	---	0.00	29.988 
20:15	77.6	77.6	79.5	70	67.0	0	0	---	0.00	29.993 
20:20	77.2	77.2	79.0	71	67.0	0	0	---	0.00	29.995 
20:25	76.8	76.8	78.5	72	67.1	0	0	---	0.00	29.995 
20:30	76.7	76.7	78.3	73	67.4	0	0	---	0.00	29.996 
20:35	76.5	76.5	78.1	74	67.6	0	0	---	0.00	29.998 
20:40	76.1	76.1	77.5	75	67.6	0	0	---	0.00	30.000 
20:45	76.0	76.0	77.3	76	67.9	0	0	---	0.00	29.998 
20:50	75.8	75.8	77.0	76	67.7	0	0	---	0.00	29.998 
20:55	75.6	75.6	76.8	76	67.5	0	0	---	0.00	29.999 
21:00	75.6	75.6	76.7	77	67.9	0	0	---	0.00	30.002 
21:05	75.4	75.4	76.3	78	68.0	0	0	---	0.00	29.999 
21:10	75.3	75.3	76.2	78	68.0	0	0	---	0.00	30.004 
21:15	75.3	75.3	76.2	78	68.0	0	0	---	0.00	30.006 
21:20	75.1	75.1	75.8	79	68.1	0	0	---	0.00	30.007 
21:25	75.1	75.1	75.8	79	68.1	0	0	---	0.00	30.007 
21:30	75.1	75.1	75.8	79	68.1	0	0	---	0.00	30.007 
21:35	74.9	74.9	74.9	80	68.3	0	0	---	0.00	30.008 
21:40	74.9	74.9	74.9	80	68.3	0	0	---	0.00	30.009 
21:45	74.7	74.7	74.7	81	68.5	0	0	---	0.00	30.010 
21:50	74.6	74.6	74.6	80	68.0	0	0	---	0.00	30.009 
21:55	74.4	74.4	74.4	81	68.2	0	0	---	0.00	30.009 
22:00	74.2	74.2	74.2	81	68.0	0	0	---	0.00	30.010 
22:05	74.2	74.2	74.2	81	68.0	0	0	---	0.00	30.008 
22:10	74.0	74.0	74.0	82	68.1	0	0	---	0.00	30.012 
22:15	73.9	73.9	73.9	82	68.0	0	0	---	0.00	30.013 
22:20	73.9	73.9	73.9	83	68.4	0	0	---	0.00	30.015 
22:25	73.7	73.7	73.7	83	68.2	0	0	---	0.00	30.017 
22:30	73.7	73.7	73.7	84	68.6	0	1	90	0.00	30.016 
22:35	73.7	73.7	73.7	84	68.6	0	1	90	0.00	30.017 
22:40	73.7	73.7	73.7	84	68.6	0	0	---	0.00	30.018 
22:45	73.7	73.7	73.7	84	68.6	0	0	---	0.00	30.018 
22:50	73.7	73.7	73.7	83	68.2	0	1	90	0.00	30.021 
22:55	73.9	73.9	73.9	83	68.4	0	1	90	0.00	30.021 
23:00	73.9	73.9	73.9	83	68.4	0	0	---	0.00	30.021 
23:05	73.9	73.9	73.9	83	68.4	0	1	90	0.00	30.020 
23:10	74.0	74.0	74.0	82	68.1	0	1	90	0.00	30.020 
23:15	74.2	74.2	74.2	82	68.3	0	0	---	0.00	30.020 
23:20	74.2	74.2	74.2	82	68.3	0	0	---	0.00	30.021 
23:25	74.2	74.2	74.2	83	68.7	0	2	90	0.00	30.019 
23:30	74.4	74.4	74.4	83	68.9	1	2	90	0.00	30.016 
23:35	74.4	74.4	74.4	83	68.9	0	2	90	0.00	30.017 
23:40	74.2	74.2	74.2	83	68.7	0	1	90	0.00	30.016 
23:45	74.2	74.2	74.2	84	69.0	0	1	90	0.00	30.016 
23:50	74.2	74.2	74.2	84	69.0	0	2	90	0.00	30.018 
23:55	74.0	74.0	74.0	83	68.5	0	1	90	0.00	30.017 

CoCoRaHS
IN-AL-39
A2 Web Hosting
Creative Commons License
GoDaddy
Look for:

loaded 2017-10-17 09:37:00 • last modified 2010-11-18 10:43:29
Privacy PolicyDisclaimer
• wx.awcolley.com is powered by PmWiki v.2002016 •
• all content (unless otherwise noted) © 2017 A W Colley